sensor_id;sensor_type;location;lat;lon;timestamp;P1;durP1;ratioP1;P2;durP2;ratioP2
43933;SDS011;59081;42.706;23.306;2022-10-16T00:01:12;11.85;;;7.97;;
43933;SDS011;59081;42.706;23.306;2022-10-16T00:03:39;13.52;;;8.55;;
43933;SDS011;59081;42.706;23.306;2022-10-16T00:06:06;15.52;;;10.18;;
43933;SDS011;59081;42.706;23.306;2022-10-16T00:08:33;16.33;;;9.75;;
43933;SDS011;59081;42.706;23.306;2022-10-16T00:11:00;24.77;;;14.27;;
43933;SDS011;59081;42.706;23.306;2022-10-16T00:13:27;17.95;;;10.27;;
43933;SDS011;59081;42.706;23.306;2022-10-16T00:15:54;18.65;;;13.52;;
43933;SDS011;59081;42.706;23.306;2022-10-16T00:18:21;18.38;;;12.23;;
43933;SDS011;59081;42.706;23.306;2022-10-16T00:20:46;17.23;;;10.50;;
43933;SDS011;59081;42.706;23.306;2022-10-16T00:23:12;15.13;;;9.85;;
43933;SDS011;59081;42.706;23.306;2022-10-16T00:25:37;19.33;;;9.65;;
43933;SDS011;59081;42.706;23.306;2022-10-16T00:28:03;14.07;;;8.98;;
43933;SDS011;59081;42.706;23.306;2022-10-16T00:30:28;15.32;;;8.82;;
43933;SDS011;59081;42.706;23.306;2022-10-16T00:32:54;15.13;;;9.20;;
43933;SDS011;59081;42.706;23.306;2022-10-16T00:35:20;13.70;;;8.90;;
43933;SDS011;59081;42.706;23.306;2022-10-16T00:37:46;18.52;;;8.90;;
43933;SDS011;59081;42.706;23.306;2022-10-16T00:40:11;15.07;;;8.57;;
43933;SDS011;59081;42.706;23.306;2022-10-16T00:42:37;14.02;;;8.98;;
43933;SDS011;59081;42.706;23.306;2022-10-16T00:45:03;16.30;;;8.75;;
43933;SDS011;59081;42.706;23.306;2022-10-16T00:50:00;14.18;;;8.70;;
43933;SDS011;59081;42.706;23.306;2022-10-16T00:52:31;14.38;;;8.43;;
43933;SDS011;59081;42.706;23.306;2022-10-16T00:54:57;17.55;;;8.57;;
43933;SDS011;59081;42.706;23.306;2022-10-16T00:57:23;13.30;;;7.88;;
43933;SDS011;59081;42.706;23.306;2022-10-16T00:59:50;13.02;;;7.95;;
43933;SDS011;59081;42.706;23.306;2022-10-16T01:02:16;15.82;;;8.13;;
43933;SDS011;59081;42.706;23.306;2022-10-16T01:04:52;12.45;;;7.93;;
43933;SDS011;59081;42.706;23.306;2022-10-16T01:17:38;15.02;;;9.20;;
43933;SDS011;59081;42.706;23.306;2022-10-16T01:20:12;14.13;;;8.52;;
43933;SDS011;59081;42.706;23.306;2022-10-16T01:25:49;10.70;;;7.23;;
43933;SDS011;59081;42.706;23.306;2022-10-16T01:28:34;12.82;;;7.45;;
43933;SDS011;59081;42.706;23.306;2022-10-16T01:31:04;13.20;;;7.30;;
43933;SDS011;59081;42.706;23.306;2022-10-16T01:33:35;11.85;;;7.07;;
43933;SDS011;59081;42.706;23.306;2022-10-16T01:36:15;9.82;;;7.05;;
43933;SDS011;59081;42.706;23.306;2022-10-16T01:38:47;13.57;;;7.30;;
43933;SDS011;59081;42.706;23.306;2022-10-16T01:41:30;11.20;;;6.65;;
43933;SDS011;59081;42.706;23.306;2022-10-16T01:44:03;13.57;;;7.53;;
43933;SDS011;59081;42.706;23.306;2022-10-16T01:46:32;13.68;;;7.70;;
43933;SDS011;59081;42.706;23.306;2022-10-16T01:49:00;11.68;;;8.05;;
43933;SDS011;59081;42.706;23.306;2022-10-16T01:51:27;19.50;;;8.90;;
43933;SDS011;59081;42.706;23.306;2022-10-16T01:53:55;16.42;;;9.00;;
43933;SDS011;59081;42.706;23.306;2022-10-16T01:56:23;12.15;;;7.43;;
43933;SDS011;59081;42.706;23.306;2022-10-16T01:59:33;12.95;;;9.05;;
43933;SDS011;59081;42.706;23.306;2022-10-16T02:01:43;13.43;;;8.50;;
43933;SDS011;59081;42.706;23.306;2022-10-16T02:04:17;12.80;;;7.93;;
43933;SDS011;59081;42.706;23.306;2022-10-16T02:06:48;16.23;;;9.52;;
43933;SDS011;59081;42.706;23.306;2022-10-16T02:09:14;13.63;;;7.97;;
43933;SDS011;59081;42.706;23.306;2022-10-16T02:11:42;18.88;;;8.80;;
43933;SDS011;59081;42.706;23.306;2022-10-16T02:14:08;12.07;;;7.95;;
43933;SDS011;59081;42.706;23.306;2022-10-16T02:16:36;12.52;;;7.90;;
43933;SDS011;59081;42.706;23.306;2022-10-16T02:19:05;13.50;;;8.32;;
43933;SDS011;59081;42.706;23.306;2022-10-16T02:21:44;14.73;;;7.07;;
43933;SDS011;59081;42.706;23.306;2022-10-16T02:24:19;9.40;;;6.72;;
43933;SDS011;59081;42.706;23.306;2022-10-16T02:27:07;15.25;;;7.90;;
43933;SDS011;59081;42.706;23.306;2022-10-16T02:29:35;10.95;;;6.65;;
43933;SDS011;59081;42.706;23.306;2022-10-16T02:32:10;14.85;;;7.05;;
43933;SDS011;59081;42.706;23.306;2022-10-16T02:34:39;12.20;;;7.13;;
43933;SDS011;59081;42.706;23.306;2022-10-16T02:37:06;10.70;;;6.35;;
43933;SDS011;59081;42.706;23.306;2022-10-16T02:39:32;11.15;;;7.18;;
43933;SDS011;59081;42.706;23.306;2022-10-16T02:41:58;12.93;;;6.40;;
43933;SDS011;59081;42.706;23.306;2022-10-16T02:44:24;7.95;;;5.60;;
43933;SDS011;59081;42.706;23.306;2022-10-16T02:46:49;8.50;;;5.43;;
43933;SDS011;59081;42.706;23.306;2022-10-16T02:49:15;7.80;;;5.75;;
43933;SDS011;59081;42.706;23.306;2022-10-16T02:51:40;9.05;;;5.50;;
43933;SDS011;59081;42.706;23.306;2022-10-16T02:54:06;8.60;;;5.50;;
43933;SDS011;59081;42.706;23.306;2022-10-16T02:56:32;8.63;;;5.85;;
43933;SDS011;59081;42.706;23.306;2022-10-16T02:58:58;10.60;;;6.78;;
43933;SDS011;59081;42.706;23.306;2022-10-16T03:01:23;8.70;;;5.72;;
43933;SDS011;59081;42.706;23.306;2022-10-16T03:03:49;10.82;;;6.35;;
43933;SDS011;59081;42.706;23.306;2022-10-16T03:06:15;10.88;;;6.38;;
43933;SDS011;59081;42.706;23.306;2022-10-16T03:08:41;8.40;;;5.28;;
43933;SDS011;59081;42.706;23.306;2022-10-16T03:11:06;8.32;;;5.68;;
43933;SDS011;59081;42.706;23.306;2022-10-16T03:13:32;13.90;;;6.45;;
43933;SDS011;59081;42.706;23.306;2022-10-16T03:15:57;9.65;;;5.45;;
43933;SDS011;59081;42.706;23.306;2022-10-16T03:18:23;9.75;;;5.72;;
43933;SDS011;59081;42.706;23.306;2022-10-16T03:20:48;11.20;;;5.65;;
43933;SDS011;59081;42.706;23.306;2022-10-16T03:23:14;9.18;;;5.63;;
43933;SDS011;59081;42.706;23.306;2022-10-16T03:25:39;7.45;;;5.25;;
43933;SDS011;59081;42.706;23.306;2022-10-16T03:28:05;9.68;;;5.75;;
43933;SDS011;59081;42.706;23.306;2022-10-16T03:30:31;10.20;;;5.60;;
43933;SDS011;59081;42.706;23.306;2022-10-16T03:32:56;6.70;;;5.10;;
43933;SDS011;59081;42.706;23.306;2022-10-16T03:35:22;6.97;;;5.10;;
43933;SDS011;59081;42.706;23.306;2022-10-16T03:37:48;6.78;;;5.07;;
43933;SDS011;59081;42.706;23.306;2022-10-16T03:40:14;10.20;;;5.43;;
43933;SDS011;59081;42.706;23.306;2022-10-16T03:42:41;12.68;;;6.05;;
43933;SDS011;59081;42.706;23.306;2022-10-16T03:45:08;12.70;;;6.07;;
43933;SDS011;59081;42.706;23.306;2022-10-16T03:47:34;12.52;;;8.38;;
43933;SDS011;59081;42.706;23.306;2022-10-16T03:50:00;11.07;;;7.55;;
43933;SDS011;59081;42.706;23.306;2022-10-16T03:52:25;10.77;;;8.63;;
43933;SDS011;59081;42.706;23.306;2022-10-16T03:54:51;11.40;;;7.93;;
43933;SDS011;59081;42.706;23.306;2022-10-16T03:57:16;12.98;;;8.45;;
43933;SDS011;59081;42.706;23.306;2022-10-16T03:59:42;11.27;;;7.68;;
43933;SDS011;59081;42.706;23.306;2022-10-16T04:02:08;13.07;;;7.90;;
43933;SDS011;59081;42.706;23.306;2022-10-16T04:04:33;12.07;;;7.63;;
43933;SDS011;59081;42.706;23.306;2022-10-16T04:06:59;13.23;;;7.95;;
43933;SDS011;59081;42.706;23.306;2022-10-16T04:09:25;15.43;;;8.90;;
43933;SDS011;59081;42.706;23.306;2022-10-16T04:11:50;15.95;;;7.07;;
43933;SDS011;59081;42.706;23.306;2022-10-16T04:14:16;13.73;;;7.38;;
43933;SDS011;59081;42.706;23.306;2022-10-16T04:16:44;14.63;;;7.78;;
43933;SDS011;59081;42.706;23.306;2022-10-16T04:19:10;14.88;;;8.10;;
43933;SDS011;59081;42.706;23.306;2022-10-16T04:21:35;14.75;;;7.40;;
43933;SDS011;59081;42.706;23.306;2022-10-16T04:24:01;16.02;;;8.48;;
43933;SDS011;59081;42.706;23.306;2022-10-16T04:26:28;14.30;;;7.82;;
43933;SDS011;59081;42.706;23.306;2022-10-16T04:28:54;14.38;;;7.55;;
43933;SDS011;59081;42.706;23.306;2022-10-16T04:31:19;14.43;;;7.55;;
43933;SDS011;59081;42.706;23.306;2022-10-16T04:33:47;17.65;;;7.85;;
43933;SDS011;59081;42.706;23.306;2022-10-16T04:36:13;14.35;;;7.93;;
43933;SDS011;59081;42.706;23.306;2022-10-16T04:38:39;13.82;;;7.22;;
43933;SDS011;59081;42.706;23.306;2022-10-16T04:41:05;10.32;;;7.05;;
43933;SDS011;59081;42.706;23.306;2022-10-16T04:43:31;11.25;;;7.40;;
43933;SDS011;59081;42.706;23.306;2022-10-16T04:45:57;15.45;;;8.43;;
43933;SDS011;59081;42.706;23.306;2022-10-16T04:48:23;14.60;;;7.53;;
43933;SDS011;59081;42.706;23.306;2022-10-16T04:50:48;14.88;;;7.65;;
43933;SDS011;59081;42.706;23.306;2022-10-16T04:53:14;13.15;;;8.07;;
43933;SDS011;59081;42.706;23.306;2022-10-16T04:55:40;14.65;;;7.32;;
43933;SDS011;59081;42.706;23.306;2022-10-16T04:58:07;10.88;;;6.63;;
43933;SDS011;59081;42.706;23.306;2022-10-16T05:00:33;13.25;;;6.45;;
43933;SDS011;59081;42.706;23.306;2022-10-16T05:02:59;10.98;;;7.45;;
43933;SDS011;59081;42.706;23.306;2022-10-16T05:05:26;11.27;;;6.03;;
43933;SDS011;59081;42.706;23.306;2022-10-16T05:07:52;9.88;;;6.05;;
43933;SDS011;59081;42.706;23.306;2022-10-16T05:10:18;9.60;;;5.72;;
43933;SDS011;59081;42.706;23.306;2022-10-16T05:12:44;9.13;;;5.72;;
43933;SDS011;59081;42.706;23.306;2022-10-16T05:15:10;11.80;;;6.68;;
43933;SDS011;59081;42.706;23.306;2022-10-16T05:17:35;13.13;;;7.43;;
43933;SDS011;59081;42.706;23.306;2022-10-16T05:20:01;9.60;;;6.57;;
43933;SDS011;59081;42.706;23.306;2022-10-16T05:22:27;11.02;;;6.25;;
43933;SDS011;59081;42.706;23.306;2022-10-16T05:24:52;12.18;;;6.75;;
43933;SDS011;59081;42.706;23.306;2022-10-16T05:27:18;16.13;;;7.28;;
43933;SDS011;59081;42.706;23.306;2022-10-16T05:29:46;9.15;;;6.50;;
43933;SDS011;59081;42.706;23.306;2022-10-16T05:32:13;13.48;;;7.60;;
43933;SDS011;59081;42.706;23.306;2022-10-16T05:34:43;14.63;;;8.10;;
43933;SDS011;59081;42.706;23.306;2022-10-16T05:37:11;16.50;;;7.75;;
43933;SDS011;59081;42.706;23.306;2022-10-16T05:39:39;16.23;;;7.55;;
43933;SDS011;59081;42.706;23.306;2022-10-16T05:42:05;11.70;;;7.75;;
43933;SDS011;59081;42.706;23.306;2022-10-16T05:44:31;17.40;;;9.00;;
43933;SDS011;59081;42.706;23.306;2022-10-16T05:46:56;14.18;;;7.43;;
43933;SDS011;59081;42.706;23.306;2022-10-16T05:49:22;10.98;;;7.78;;
43933;SDS011;59081;42.706;23.306;2022-10-16T05:51:47;13.02;;;8.55;;
43933;SDS011;59081;42.706;23.306;2022-10-16T05:54:13;11.02;;;7.65;;
43933;SDS011;59081;42.706;23.306;2022-10-16T05:56:38;15.10;;;7.65;;
43933;SDS011;59081;42.706;23.306;2022-10-16T05:59:04;14.23;;;7.15;;
43933;SDS011;59081;42.706;23.306;2022-10-16T06:01:30;16.02;;;8.35;;
43933;SDS011;59081;42.706;23.306;2022-10-16T06:03:56;17.25;;;8.55;;
43933;SDS011;59081;42.706;23.306;2022-10-16T06:06:23;17.98;;;8.93;;
43933;SDS011;59081;42.706;23.306;2022-10-16T06:08:52;14.55;;;7.95;;
43933;SDS011;59081;42.706;23.306;2022-10-16T06:11:19;12.38;;;6.80;;
43933;SDS011;59081;42.706;23.306;2022-10-16T06:13:54;12.25;;;7.72;;
43933;SDS011;59081;42.706;23.306;2022-10-16T06:16:25;15.57;;;7.60;;
43933;SDS011;59081;42.706;23.306;2022-10-16T06:18:51;11.15;;;8.15;;
43933;SDS011;59081;42.706;23.306;2022-10-16T06:21:18;15.20;;;8.77;;
43933;SDS011;59081;42.706;23.306;2022-10-16T06:23:46;13.27;;;9.15;;
43933;SDS011;59081;42.706;23.306;2022-10-16T06:26:13;15.30;;;8.68;;
43933;SDS011;59081;42.706;23.306;2022-10-16T06:28:41;16.48;;;9.13;;
43933;SDS011;59081;42.706;23.306;2022-10-16T06:31:08;17.92;;;13.30;;
43933;SDS011;59081;42.706;23.306;2022-10-16T06:33:35;15.60;;;9.38;;
43933;SDS011;59081;42.706;23.306;2022-10-16T06:36:05;23.10;;;14.05;;
43933;SDS011;59081;42.706;23.306;2022-10-16T06:38:33;22.67;;;13.95;;
43933;SDS011;59081;42.706;23.306;2022-10-16T06:40:58;12.93;;;8.93;;
43933;SDS011;59081;42.706;23.306;2022-10-16T06:43:24;13.18;;;7.53;;
43933;SDS011;59081;42.706;23.306;2022-10-16T06:45:53;19.27;;;8.55;;
43933;SDS011;59081;42.706;23.306;2022-10-16T06:48:19;13.63;;;8.43;;
43933;SDS011;59081;42.706;23.306;2022-10-16T06:50:58;14.82;;;9.10;;
43933;SDS011;59081;42.706;23.306;2022-10-16T06:53:28;16.60;;;8.93;;
43933;SDS011;59081;42.706;23.306;2022-10-16T06:55:55;10.85;;;7.55;;
43933;SDS011;59081;42.706;23.306;2022-10-16T06:58:21;17.67;;;9.50;;
43933;SDS011;59081;42.706;23.306;2022-10-16T07:00:47;16.92;;;11.18;;
43933;SDS011;59081;42.706;23.306;2022-10-16T07:03:13;18.95;;;12.35;;
43933;SDS011;59081;42.706;23.306;2022-10-16T07:05:39;15.52;;;9.70;;
43933;SDS011;59081;42.706;23.306;2022-10-16T07:08:05;12.57;;;8.18;;
43933;SDS011;59081;42.706;23.306;2022-10-16T07:10:32;17.85;;;9.57;;
43933;SDS011;59081;42.706;23.306;2022-10-16T07:12:57;15.20;;;8.60;;
43933;SDS011;59081;42.706;23.306;2022-10-16T07:15:24;17.13;;;11.02;;
43933;SDS011;59081;42.706;23.306;2022-10-16T07:17:50;18.23;;;11.35;;
43933;SDS011;59081;42.706;23.306;2022-10-16T07:20:16;21.35;;;11.05;;
43933;SDS011;59081;42.706;23.306;2022-10-16T07:22:41;15.82;;;8.90;;
43933;SDS011;59081;42.706;23.306;2022-10-16T07:25:07;12.10;;;7.35;;
43933;SDS011;59081;42.706;23.306;2022-10-16T07:27:33;11.25;;;7.70;;
43933;SDS011;59081;42.706;23.306;2022-10-16T07:29:59;12.27;;;7.53;;
43933;SDS011;59081;42.706;23.306;2022-10-16T07:32:24;29.67;;;19.00;;
43933;SDS011;59081;42.706;23.306;2022-10-16T07:34:51;18.30;;;11.43;;
43933;SDS011;59081;42.706;23.306;2022-10-16T07:37:16;19.02;;;11.73;;
43933;SDS011;59081;42.706;23.306;2022-10-16T07:39:42;18.17;;;9.50;;
43933;SDS011;59081;42.706;23.306;2022-10-16T07:42:07;16.98;;;9.40;;
43933;SDS011;59081;42.706;23.306;2022-10-16T07:44:33;14.10;;;10.05;;
43933;SDS011;59081;42.706;23.306;2022-10-16T07:46:58;15.40;;;9.75;;
43933;SDS011;59081;42.706;23.306;2022-10-16T07:49:24;12.63;;;8.57;;
43933;SDS011;59081;42.706;23.306;2022-10-16T07:51:49;15.35;;;10.40;;
43933;SDS011;59081;42.706;23.306;2022-10-16T07:54:15;17.35;;;10.93;;
43933;SDS011;59081;42.706;23.306;2022-10-16T07:56:40;27.05;;;15.10;;
43933;SDS011;59081;42.706;23.306;2022-10-16T07:59:06;22.88;;;15.43;;
43933;SDS011;59081;42.706;23.306;2022-10-16T08:01:31;24.10;;;14.02;;
43933;SDS011;59081;42.706;23.306;2022-10-16T08:03:57;18.27;;;11.30;;
43933;SDS011;59081;42.706;23.306;2022-10-16T08:06:22;14.88;;;10.07;;
43933;SDS011;59081;42.706;23.306;2022-10-16T08:08:48;15.18;;;9.93;;
43933;SDS011;59081;42.706;23.306;2022-10-16T08:11:14;17.77;;;10.25;;
43933;SDS011;59081;42.706;23.306;2022-10-16T08:13:40;15.80;;;11.45;;
43933;SDS011;59081;42.706;23.306;2022-10-16T08:16:06;13.90;;;9.50;;
43933;SDS011;59081;42.706;23.306;2022-10-16T08:18:34;15.90;;;10.15;;
43933;SDS011;59081;42.706;23.306;2022-10-16T08:21:00;14.25;;;9.73;;
43933;SDS011;59081;42.706;23.306;2022-10-16T08:23:27;13.70;;;8.18;;
43933;SDS011;59081;42.706;23.306;2022-10-16T08:25:53;10.73;;;7.35;;
43933;SDS011;59081;42.706;23.306;2022-10-16T08:28:19;11.98;;;7.45;;
43933;SDS011;59081;42.706;23.306;2022-10-16T08:30:45;11.75;;;7.00;;
43933;SDS011;59081;42.706;23.306;2022-10-16T08:33:11;11.85;;;6.90;;
43933;SDS011;59081;42.706;23.306;2022-10-16T08:35:36;7.85;;;6.13;;
43933;SDS011;59081;42.706;23.306;2022-10-16T08:38:05;9.07;;;5.00;;
43933;SDS011;59081;42.706;23.306;2022-10-16T08:40:32;9.40;;;5.70;;
43933;SDS011;59081;42.706;23.306;2022-10-16T08:48:17;10.98;;;5.65;;
43933;SDS011;59081;42.706;23.306;2022-10-16T08:51:01;8.13;;;5.80;;
43933;SDS011;59081;42.706;23.306;2022-10-16T08:53:30;7.60;;;5.35;;
43933;SDS011;59081;42.706;23.306;2022-10-16T08:56:01;9.20;;;5.05;;
43933;SDS011;59081;42.706;23.306;2022-10-16T08:58:28;11.02;;;6.28;;
43933;SDS011;59081;42.706;23.306;2022-10-16T09:00:59;10.38;;;5.95;;
43933;SDS011;59081;42.706;23.306;2022-10-16T09:06:08;9.60;;;4.55;;
43933;SDS011;59081;42.706;23.306;2022-10-16T09:11:42;9.40;;;5.85;;
43933;SDS011;59081;42.706;23.306;2022-10-16T09:20:11;8.73;;;3.28;;
43933;SDS011;59081;42.706;23.306;2022-10-16T09:22:45;4.60;;;3.15;;
43933;SDS011;59081;42.706;23.306;2022-10-16T09:25:12;4.93;;;3.78;;
43933;SDS011;59081;42.706;23.306;2022-10-16T09:27:40;6.80;;;4.45;;
43933;SDS011;59081;42.706;23.306;2022-10-16T09:30:13;5.68;;;4.03;;
43933;SDS011;59081;42.706;23.306;2022-10-16T09:32:40;5.43;;;3.20;;
43933;SDS011;59081;42.706;23.306;2022-10-16T09:35:13;7.43;;;3.47;;
43933;SDS011;59081;42.706;23.306;2022-10-16T09:37:42;5.95;;;3.50;;
43933;SDS011;59081;42.706;23.306;2022-10-16T09:40:23;5.30;;;3.17;;
43933;SDS011;59081;42.706;23.306;2022-10-16T09:42:52;9.48;;;3.40;;
43933;SDS011;59081;42.706;23.306;2022-10-16T09:45:27;6.40;;;3.17;;
43933;SDS011;59081;42.706;23.306;2022-10-16T09:47:53;6.65;;;3.35;;
43933;SDS011;59081;42.706;23.306;2022-10-16T09:50:25;5.07;;;3.75;;
43933;SDS011;59081;42.706;23.306;2022-10-16T09:53:07;7.60;;;3.05;;
43933;SDS011;59081;42.706;23.306;2022-10-16T09:55:36;3.95;;;2.67;;
43933;SDS011;59081;42.706;23.306;2022-10-16T09:58:12;7.25;;;3.25;;
43933;SDS011;59081;42.706;23.306;2022-10-16T10:00:39;5.10;;;2.65;;
43933;SDS011;59081;42.706;23.306;2022-10-16T10:03:10;5.88;;;3.28;;
43933;SDS011;59081;42.706;23.306;2022-10-16T10:05:37;6.90;;;3.03;;
43933;SDS011;59081;42.706;23.306;2022-10-16T10:08:04;7.93;;;3.13;;
43933;SDS011;59081;42.706;23.306;2022-10-16T10:10:37;6.53;;;3.97;;
43933;SDS011;59081;42.706;23.306;2022-10-16T10:13:19;6.90;;;2.95;;
43933;SDS011;59081;42.706;23.306;2022-10-16T10:15:46;4.15;;;3.00;;
43933;SDS011;59081;42.706;23.306;2022-10-16T10:18:16;6.03;;;3.17;;
43933;SDS011;59081;42.706;23.306;2022-10-16T10:20:44;10.88;;;3.58;;
43933;SDS011;59081;42.706;23.306;2022-10-16T10:23:20;6.53;;;2.92;;
43933;SDS011;59081;42.706;23.306;2022-10-16T10:34:18;4.33;;;2.97;;
43933;SDS011;59081;42.706;23.306;2022-10-16T10:36:54;5.32;;;2.72;;
43933;SDS011;59081;42.706;23.306;2022-10-16T10:39:29;11.38;;;3.70;;
43933;SDS011;59081;42.706;23.306;2022-10-16T10:47:10;5.93;;;3.20;;
43933;SDS011;59081;42.706;23.306;2022-10-16T11:02:07;5.32;;;3.10;;
43933;SDS011;59081;42.706;23.306;2022-10-16T11:07:33;7.53;;;3.20;;
43933;SDS011;59081;42.706;23.306;2022-10-16T11:10:05;7.70;;;4.55;;
43933;SDS011;59081;42.706;23.306;2022-10-16T11:12:42;7.28;;;5.10;;
43933;SDS011;59081;42.706;23.306;2022-10-16T11:15:15;11.40;;;6.22;;
43933;SDS011;59081;42.706;23.306;2022-10-16T11:17:46;8.52;;;3.80;;
43933;SDS011;59081;42.706;23.306;2022-10-16T11:22:48;7.35;;;3.80;;
43933;SDS011;59081;42.706;23.306;2022-10-16T11:25:20;5.35;;;3.10;;
43933;SDS011;59081;42.706;23.306;2022-10-16T11:30:22;11.15;;;4.22;;
43933;SDS011;59081;42.706;23.306;2022-10-16T11:38:10;4.15;;;3.00;;
43933;SDS011;59081;42.706;23.306;2022-10-16T11:41:10;6.35;;;4.15;;
43933;SDS011;59081;42.706;23.306;2022-10-16T11:43:49;6.85;;;3.03;;
43933;SDS011;59081;42.706;23.306;2022-10-16T11:46:32;6.10;;;3.58;;
43933;SDS011;59081;42.706;23.306;2022-10-16T11:51:36;3.63;;;2.47;;
43933;SDS011;59081;42.706;23.306;2022-10-16T11:54:14;6.35;;;3.63;;
43933;SDS011;59081;42.706;23.306;2022-10-16T11:56:57;4.10;;;3.00;;
43933;SDS011;59081;42.706;23.306;2022-10-16T11:59:31;4.85;;;3.05;;
43933;SDS011;59081;42.706;23.306;2022-10-16T12:05:05;7.97;;;3.47;;
43933;SDS011;59081;42.706;23.306;2022-10-16T12:07:32;4.37;;;3.07;;
43933;SDS011;59081;42.706;23.306;2022-10-16T12:10:16;4.18;;;2.65;;
43933;SDS011;59081;42.706;23.306;2022-10-16T12:15:21;4.15;;;2.40;;
43933;SDS011;59081;42.706;23.306;2022-10-16T12:17:54;4.03;;;2.58;;
43933;SDS011;59081;42.706;23.306;2022-10-16T12:23:01;5.30;;;2.72;;
43933;SDS011;59081;42.706;23.306;2022-10-16T12:25:38;4.43;;;2.72;;
43933;SDS011;59081;42.706;23.306;2022-10-16T12:30:39;8.45;;;2.97;;
43933;SDS011;59081;42.706;23.306;2022-10-16T12:33:17;7.63;;;3.03;;
43933;SDS011;59081;42.706;23.306;2022-10-16T12:35:47;6.18;;;2.17;;
43933;SDS011;59081;42.706;23.306;2022-10-16T12:41:11;3.35;;;2.75;;
43933;SDS011;59081;42.706;23.306;2022-10-16T12:48:38;3.70;;;2.50;;
43933;SDS011;59081;42.706;23.306;2022-10-16T12:51:10;4.78;;;3.20;;
43933;SDS011;59081;42.706;23.306;2022-10-16T12:58:43;4.28;;;2.72;;
43933;SDS011;59081;42.706;23.306;2022-10-16T13:04:15;5.82;;;2.67;;
43933;SDS011;59081;42.706;23.306;2022-10-16T13:06:51;4.70;;;2.33;;
43933;SDS011;59081;42.706;23.306;2022-10-16T13:14:55;4.75;;;2.40;;
43933;SDS011;59081;42.706;23.306;2022-10-16T13:18:05;5.45;;;4.40;;
43933;SDS011;59081;42.706;23.306;2022-10-16T13:23:23;4.15;;;2.83;;
43933;SDS011;59081;42.706;23.306;2022-10-16T13:26:17;3.63;;;2.30;;
43933;SDS011;59081;42.706;23.306;2022-10-16T13:28:59;4.07;;;2.63;;
43933;SDS011;59081;42.706;23.306;2022-10-16T13:31:26;5.10;;;2.63;;
43933;SDS011;59081;42.706;23.306;2022-10-16T13:33:54;4.07;;;3.08;;
43933;SDS011;59081;42.706;23.306;2022-10-16T13:39:50;5.28;;;2.75;;
43933;SDS011;59081;42.706;23.306;2022-10-16T13:42:01;2.65;;;1.75;;
43933;SDS011;59081;42.706;23.306;2022-10-16T13:44:27;3.38;;;2.08;;
43933;SDS011;59081;42.706;23.306;2022-10-16T13:47:01;5.25;;;2.00;;
43933;SDS011;59081;42.706;23.306;2022-10-16T13:49:27;3.00;;;1.10;;
43933;SDS011;59081;42.706;23.306;2022-10-16T13:51:54;3.85;;;1.77;;
43933;SDS011;59081;42.706;23.306;2022-10-16T13:54:21;4.00;;;2.35;;
43933;SDS011;59081;42.706;23.306;2022-10-16T13:56:46;4.70;;;2.00;;
43933;SDS011;59081;42.706;23.306;2022-10-16T14:04:44;7.93;;;3.92;;
43933;SDS011;59081;42.706;23.306;2022-10-16T14:07:13;4.60;;;3.53;;
43933;SDS011;59081;42.706;23.306;2022-10-16T14:09:47;4.00;;;2.15;;
43933;SDS011;59081;42.706;23.306;2022-10-16T14:12:15;4.53;;;2.05;;
43933;SDS011;59081;42.706;23.306;2022-10-16T14:14:42;7.75;;;3.00;;
43933;SDS011;59081;42.706;23.306;2022-10-16T14:17:13;5.10;;;3.00;;
43933;SDS011;59081;42.706;23.306;2022-10-16T14:19:45;2.95;;;1.90;;
43933;SDS011;59081;42.706;23.306;2022-10-16T14:24:54;5.10;;;2.30;;
43933;SDS011;59081;42.706;23.306;2022-10-16T14:32:52;4.55;;;2.58;;
43933;SDS011;59081;42.706;23.306;2022-10-16T14:37:56;4.13;;;2.75;;
43933;SDS011;59081;42.706;23.306;2022-10-16T14:40:25;5.75;;;2.58;;
43933;SDS011;59081;42.706;23.306;2022-10-16T14:42:59;2.80;;;2.05;;
43933;SDS011;59081;42.706;23.306;2022-10-16T14:45:27;3.65;;;2.42;;
43933;SDS011;59081;42.706;23.306;2022-10-16T14:47:59;5.20;;;2.38;;
43933;SDS011;59081;42.706;23.306;2022-10-16T14:50:27;7.75;;;2.20;;
43933;SDS011;59081;42.706;23.306;2022-10-16T14:52:53;5.80;;;3.00;;
43933;SDS011;59081;42.706;23.306;2022-10-16T14:55:20;5.05;;;2.50;;
43933;SDS011;59081;42.706;23.306;2022-10-16T14:57:45;4.97;;;2.80;;
43933;SDS011;59081;42.706;23.306;2022-10-16T15:02:40;3.90;;;2.20;;
43933;SDS011;59081;42.706;23.306;2022-10-16T15:05:28;4.53;;;2.97;;
43933;SDS011;59081;42.706;23.306;2022-10-16T15:07:53;5.78;;;3.35;;
43933;SDS011;59081;42.706;23.306;2022-10-16T15:10:23;11.45;;;3.50;;
43933;SDS011;59081;42.706;23.306;2022-10-16T15:12:50;7.47;;;2.53;;
43933;SDS011;59081;42.706;23.306;2022-10-16T15:15:21;6.60;;;3.38;;
43933;SDS011;59081;42.706;23.306;2022-10-16T15:17:57;3.22;;;2.75;;
43933;SDS011;59081;42.706;23.306;2022-10-16T15:20:26;7.82;;;3.00;;
43933;SDS011;59081;42.706;23.306;2022-10-16T15:22:58;8.55;;;5.05;;
43933;SDS011;59081;42.706;23.306;2022-10-16T15:28:07;5.38;;;3.63;;
43933;SDS011;59081;42.706;23.306;2022-10-16T15:30:34;5.43;;;3.60;;
43933;SDS011;59081;42.706;23.306;2022-10-16T15:33:00;7.75;;;3.22;;
43933;SDS011;59081;42.706;23.306;2022-10-16T15:35:27;7.00;;;3.22;;
43933;SDS011;59081;42.706;23.306;2022-10-16T15:37:53;7.88;;;3.47;;
43933;SDS011;59081;42.706;23.306;2022-10-16T15:40:18;6.28;;;3.50;;
43933;SDS011;59081;42.706;23.306;2022-10-16T15:42:45;14.20;;;9.48;;
43933;SDS011;59081;42.706;23.306;2022-10-16T15:45:11;5.53;;;3.90;;
43933;SDS011;59081;42.706;23.306;2022-10-16T15:47:37;6.78;;;3.47;;
43933;SDS011;59081;42.706;23.306;2022-10-16T15:50:03;9.02;;;3.75;;
43933;SDS011;59081;42.706;23.306;2022-10-16T15:52:29;9.82;;;4.45;;
43933;SDS011;59081;42.706;23.306;2022-10-16T15:54:56;6.80;;;4.28;;
43933;SDS011;59081;42.706;23.306;2022-10-16T15:57:22;7.18;;;4.13;;
43933;SDS011;59081;42.706;23.306;2022-10-16T15:59:49;7.05;;;3.88;;
43933;SDS011;59081;42.706;23.306;2022-10-16T16:02:14;6.15;;;4.28;;
43933;SDS011;59081;42.706;23.306;2022-10-16T16:04:40;6.28;;;4.40;;
43933;SDS011;59081;42.706;23.306;2022-10-16T16:07:06;6.90;;;3.65;;
43933;SDS011;59081;42.706;23.306;2022-10-16T16:09:35;8.63;;;6.32;;
43933;SDS011;59081;42.706;23.306;2022-10-16T16:12:01;12.35;;;8.00;;
43933;SDS011;59081;42.706;23.306;2022-10-16T16:14:27;9.77;;;6.88;;
43933;SDS011;59081;42.706;23.306;2022-10-16T16:16:53;9.05;;;6.28;;
43933;SDS011;59081;42.706;23.306;2022-10-16T16:19:19;9.20;;;4.97;;
43933;SDS011;59081;42.706;23.306;2022-10-16T16:21:46;5.78;;;3.72;;
43933;SDS011;59081;42.706;23.306;2022-10-16T16:24:15;5.65;;;4.22;;
43933;SDS011;59081;42.706;23.306;2022-10-16T16:26:40;9.48;;;5.13;;
43933;SDS011;59081;42.706;23.306;2022-10-16T16:29:12;20.60;;;13.85;;
43933;SDS011;59081;42.706;23.306;2022-10-16T16:31:38;22.08;;;15.68;;
43933;SDS011;59081;42.706;23.306;2022-10-16T16:34:05;9.55;;;6.13;;
43933;SDS011;59081;42.706;23.306;2022-10-16T16:36:31;12.80;;;6.47;;
43933;SDS011;59081;42.706;23.306;2022-10-16T16:38:56;8.05;;;4.80;;
43933;SDS011;59081;42.706;23.306;2022-10-16T16:41:23;16.45;;;4.82;;
43933;SDS011;59081;42.706;23.306;2022-10-16T16:43:50;9.20;;;6.05;;
43933;SDS011;59081;42.706;23.306;2022-10-16T16:46:17;15.35;;;8.90;;
43933;SDS011;59081;42.706;23.306;2022-10-16T16:48:43;16.42;;;9.27;;